createdAt,value
2023-02-03T00:01:13.997Z,8.95
2023-02-03T00:03:43.346Z,7.53
2023-02-03T00:06:11.360Z,6.18
2023-02-03T00:08:39.588Z,1.15
2023-02-03T00:11:07.909Z,9.23
2023-02-03T00:13:36.207Z,6.43
2023-02-03T00:16:06.589Z,7.93
2023-02-03T00:18:35.046Z,6.85
2023-02-03T00:21:04.483Z,9.07
2023-02-03T00:23:33.035Z,8.48
2023-02-03T00:26:08.490Z,5.07
2023-02-03T00:28:36.393Z,8.93
2023-02-03T00:31:04.600Z,7.70
2023-02-03T00:33:33.772Z,11.48
2023-02-03T00:36:07.686Z,6.45
2023-02-03T00:38:37.062Z,6.03
2023-02-03T00:41:05.319Z,5.35
2023-02-03T00:43:34.461Z,6.57
2023-02-03T00:46:02.525Z,6.00
2023-02-03T00:48:30.835Z,6.88
2023-02-03T00:51:00.024Z,6.85
2023-02-03T00:53:29.353Z,3.90
2023-02-03T00:55:57.431Z,4.72
2023-02-03T00:58:25.341Z,4.45
2023-02-03T01:00:53.334Z,5.07
2023-02-03T01:03:21.321Z,6.68
2023-02-03T01:05:50.224Z,5.40
2023-02-03T01:08:18.548Z,4.22
2023-02-03T01:10:47.932Z,4.10
2023-02-03T01:13:15.994Z,3.17
2023-02-03T01:15:47.874Z,4.80
2023-02-03T01:18:16.329Z,5.10
2023-02-03T01:20:45.731Z,6.45
2023-02-03T01:23:13.811Z,2.10
2023-02-03T01:25:41.766Z,3.67
2023-02-03T01:28:11.282Z,2.75
2023-02-03T01:30:39.417Z,2.85
2023-02-03T01:33:07.402Z,3.13
2023-02-03T01:35:36.127Z,3.47
2023-02-03T01:38:04.189Z,6.65
2023-02-03T01:40:32.970Z,2.83
2023-02-03T01:43:01.216Z,3.78
2023-02-03T01:45:30.659Z,2.28
2023-02-03T01:48:00.160Z,2.38
2023-02-03T01:50:31.143Z,2.05
2023-02-03T01:53:00.991Z,2.10
2023-02-03T01:55:33.253Z,5.22
2023-02-03T01:58:04.950Z,4.53
2023-02-03T02:00:34.413Z,2.40
2023-02-03T02:03:04.038Z,2.22
2023-02-03T02:05:34.752Z,1.85
2023-02-03T02:08:04.205Z,5.75
2023-02-03T02:10:33.491Z,1.42
2023-02-03T02:13:02.573Z,2.17
2023-02-03T02:15:36.776Z,1.95
2023-02-03T02:18:19.583Z,1.90
2023-02-03T02:21:16.535Z,3.17
2023-02-03T02:24:01.437Z,1.52
2023-02-03T02:26:57.625Z,1.80
2023-02-03T02:29:58.153Z,1.08
2023-02-03T02:32:47.784Z,2.25
2023-02-03T02:35:21.163Z,1.75
2023-02-03T02:37:54.455Z,1.50
2023-02-03T02:40:26.711Z,1.48
2023-02-03T02:43:03.115Z,1.48
2023-02-03T02:45:38.357Z,2.80
2023-02-03T02:48:11.139Z,2.10
2023-02-03T02:50:42.656Z,1.85
2023-02-03T02:53:11.719Z,1.77
2023-02-03T02:55:42.255Z,3.03
2023-02-03T02:58:12.915Z,2.00
2023-02-03T03:00:41.880Z,2.45
2023-02-03T03:03:18.577Z,3.90
2023-02-03T03:05:50.763Z,4.97
2023-02-03T03:08:23.794Z,2.08
2023-02-03T03:10:51.918Z,2.38
2023-02-03T03:13:24.159Z,2.83
2023-02-03T03:15:53.408Z,3.25
2023-02-03T03:18:25.039Z,1.60
2023-02-03T03:20:54.500Z,2.90
2023-02-03T03:23:26.402Z,3.60
2023-02-03T03:25:59.197Z,4.50
2023-02-03T03:28:32.014Z,3.40
2023-02-03T03:31:00.001Z,4.18
2023-02-03T03:33:29.394Z,1.63
2023-02-03T03:36:01.275Z,4.97
2023-02-03T03:38:33.727Z,8.82
2023-02-03T03:41:05.282Z,8.68
2023-02-03T03:43:37.356Z,6.70
2023-02-03T03:46:10.279Z,5.50
2023-02-03T03:48:41.653Z,9.38
2023-02-03T03:51:12.952Z,5.25
2023-02-03T03:53:42.305Z,8.00
2023-02-03T03:56:14.723Z,7.95
2023-02-03T03:58:45.322Z,10.25
2023-02-03T04:01:14.571Z,11.50
2023-02-03T04:03:46.521Z,16.90
2023-02-03T04:06:14.856Z,11.32
2023-02-03T04:08:42.779Z,10.65
2023-02-03T04:11:10.705Z,13.90
2023-02-03T04:13:38.554Z,9.82
2023-02-03T04:16:06.840Z,10.18
2023-02-03T04:18:34.950Z,6.78
2023-02-03T04:21:04.245Z,10.07
2023-02-03T04:23:32.111Z,13.52
2023-02-03T04:26:02.218Z,11.38
2023-02-03T04:28:30.126Z,11.88
2023-02-03T04:31:01.477Z,13.50
2023-02-03T04:33:29.395Z,6.32
2023-02-03T04:35:57.254Z,8.38
2023-02-03T04:38:27.587Z,9.68
2023-02-03T04:40:55.558Z,5.78
2023-02-03T04:43:23.414Z,18.58
2023-02-03T04:45:51.303Z,7.70
2023-02-03T04:48:19.250Z,6.40
2023-02-03T04:50:47.101Z,12.02
2023-02-03T04:53:16.034Z,8.02
2023-02-03T04:55:49.016Z,4.68
2023-02-03T04:58:16.872Z,12.18
2023-02-03T05:00:44.776Z,4.05
2023-02-03T05:03:12.777Z,9.30
2023-02-03T05:05:40.767Z,10.57
2023-02-03T05:08:08.620Z,6.03
2023-02-03T05:10:36.503Z,15.20
2023-02-03T05:13:05.679Z,13.13
2023-02-03T05:15:33.507Z,10.85
2023-02-03T05:18:01.403Z,5.00
2023-02-03T05:20:29.523Z,8.30
2023-02-03T05:22:57.527Z,12.00
2023-02-03T05:25:25.390Z,7.75
2023-02-03T05:27:53.327Z,4.85
2023-02-03T05:30:22.656Z,8.65
2023-02-03T05:32:51.150Z,3.40
2023-02-03T05:35:19.047Z,11.65
2023-02-03T05:37:47.141Z,6.32
2023-02-03T05:40:32.922Z,2.65
2023-02-03T05:43:00.918Z,7.35
2023-02-03T05:45:30.197Z,4.70
2023-02-03T05:47:58.093Z,4.75
2023-02-03T05:50:27.207Z,11.45
2023-02-03T05:53:08.536Z,6.57
2023-02-03T05:55:36.696Z,5.88
2023-02-03T05:58:04.988Z,5.55
2023-02-03T06:00:34.279Z,7.15
2023-02-03T06:03:03.714Z,8.45
2023-02-03T06:05:32.873Z,10.82
2023-02-03T06:08:01.024Z,4.05
2023-02-03T06:10:29.269Z,1.13
2023-02-03T06:12:57.468Z,1.92
2023-02-03T06:15:25.375Z,2.50
2023-02-03T06:17:54.661Z,5.63
2023-02-03T06:20:22.703Z,1.70
2023-02-03T06:22:50.608Z,4.38
2023-02-03T06:25:18.756Z,0.70
2023-02-03T06:27:46.826Z,2.63
2023-02-03T06:30:15.318Z,4.97
2023-02-03T06:32:43.210Z,4.07
2023-02-03T06:35:12.417Z,1.75
2023-02-03T06:37:41.249Z,2.75
2023-02-03T06:40:10.918Z,2.33
2023-02-03T06:42:38.933Z,4.53
2023-02-03T06:45:08.398Z,4.75
2023-02-03T06:47:36.681Z,4.25
2023-02-03T06:50:04.812Z,2.35
2023-02-03T06:52:34.021Z,3.33
2023-02-03T06:55:01.887Z,0.55
2023-02-03T06:57:29.736Z,3.80
2023-02-03T06:59:57.603Z,2.72
2023-02-03T07:02:25.498Z,1.90
2023-02-03T07:04:53.489Z,0.60
2023-02-03T07:07:21.341Z,2.72
2023-02-03T07:09:50.550Z,2.50
2023-02-03T07:12:18.325Z,1.63
2023-02-03T07:14:46.239Z,2.53
2023-02-03T07:17:14.129Z,0.30
2023-02-03T07:19:42.071Z,0.20
2023-02-03T07:22:10.492Z,0.20
2023-02-03T07:24:38.467Z,0.40
2023-02-03T07:27:07.752Z,0.10
2023-02-03T07:29:35.676Z,0.15
2023-02-03T07:32:03.655Z,0.20
2023-02-03T07:34:31.639Z,0.20
2023-02-03T07:37:00.044Z,0.20
2023-02-03T07:39:27.946Z,0.13
2023-02-03T07:41:55.775Z,0.20
2023-02-03T07:44:26.239Z,0.20
2023-02-03T07:46:54.394Z,0.20
2023-02-03T07:49:22.293Z,0.10
2023-02-03T07:51:50.197Z,0.20
2023-02-03T07:54:18.013Z,0.20
2023-02-03T07:56:45.850Z,0.20
2023-02-03T07:59:13.688Z,0.15
2023-02-03T08:01:43.050Z,0.30
2023-02-03T08:04:13.181Z,0.20
2023-02-03T08:06:41.055Z,0.20
2023-02-03T08:09:08.858Z,0.13
2023-02-03T08:11:36.681Z,0.20
2023-02-03T08:14:04.671Z,0.20
2023-02-03T08:16:32.709Z,0.20
2023-02-03T08:19:01.949Z,0.20
2023-02-03T08:21:29.797Z,0.20
2023-02-03T08:23:57.690Z,0.20
2023-02-03T08:26:25.533Z,0.20
2023-02-03T08:28:53.373Z,0.20
2023-02-03T08:31:21.528Z,0.20
2023-02-03T08:33:49.361Z,0.30
2023-02-03T08:36:18.600Z,0.20
2023-02-03T08:38:46.780Z,0.20
2023-02-03T08:41:18.068Z,0.73
2023-02-03T08:43:46.264Z,0.65
2023-02-03T08:46:14.752Z,0.10
2023-02-03T08:48:42.681Z,0.20
2023-02-03T08:51:12.211Z,0.20
2023-02-03T08:53:41.411Z,18.88
2023-02-03T08:56:11.185Z,12.07
2023-02-03T08:58:39.790Z,8.80
2023-02-03T09:01:09.773Z,11.75
2023-02-03T09:03:38.086Z,10.88
2023-02-03T09:06:07.439Z,17.30
2023-02-03T09:08:35.381Z,13.52
2023-02-03T09:11:09.807Z,15.27
2023-02-03T09:13:37.950Z,17.75
2023-02-03T09:16:06.957Z,25.98
2023-02-03T09:18:34.928Z,25.35
2023-02-03T09:21:03.602Z,21.77
2023-02-03T09:23:31.598Z,16.15
2023-02-03T09:26:04.157Z,21.42
2023-02-03T09:28:32.359Z,24.08
2023-02-03T09:31:01.985Z,26.23
2023-02-03T09:33:30.397Z,32.15
2023-02-03T09:35:59.014Z,30.40
2023-02-03T09:38:27.595Z,21.52
2023-02-03T09:41:10.610Z,23.10
2023-02-03T09:43:44.496Z,34.72
2023-02-03T09:46:14.573Z,24.38
2023-02-03T09:48:46.263Z,21.73
2023-02-03T09:51:21.158Z,17.52
2023-02-03T09:53:51.778Z,14.80
2023-02-03T09:56:25.151Z,27.25
2023-02-03T09:58:54.536Z,27.17
2023-02-03T10:01:23.483Z,30.67
2023-02-03T10:03:54.809Z,20.27
2023-02-03T10:06:32.854Z,26.23
2023-02-03T10:09:25.258Z,27.92
2023-02-03T10:12:11.136Z,31.90
2023-02-03T10:14:51.927Z,35.35
2023-02-03T10:17:30.294Z,33.17
2023-02-03T10:20:02.498Z,18.23
2023-02-03T10:22:32.295Z,25.80
2023-02-03T10:25:02.462Z,31.17
2023-02-03T10:27:31.065Z,23.70
2023-02-03T10:30:05.127Z,20.95
2023-02-03T10:32:33.854Z,30.30
2023-02-03T10:35:02.323Z,24.63
2023-02-03T10:37:32.259Z,24.73
2023-02-03T10:40:01.116Z,19.08
2023-02-03T10:42:51.178Z,16.85
2023-02-03T10:45:21.118Z,23.08
2023-02-03T10:47:51.606Z,31.88
2023-02-03T10:50:21.422Z,31.50
2023-02-03T10:52:49.505Z,26.08
2023-02-03T10:55:31.602Z,15.90
2023-02-03T10:57:59.808Z,27.05
2023-02-03T11:00:31.471Z,30.00
2023-02-03T11:03:02.798Z,16.75
2023-02-03T11:05:30.745Z,12.40
2023-02-03T11:07:58.662Z,25.85
2023-02-03T11:10:36.149Z,25.23
2023-02-03T11:13:18.969Z,18.02
2023-02-03T11:15:54.230Z,32.28
2023-02-03T11:18:40.515Z,13.88
2023-02-03T11:21:11.096Z,17.50
2023-02-03T11:23:39.655Z,15.05
2023-02-03T11:26:12.709Z,17.88
2023-02-03T11:28:43.811Z,16.20
2023-02-03T11:31:23.183Z,17.15
2023-02-03T11:33:56.105Z,14.65
2023-02-03T11:36:24.397Z,19.58
2023-02-03T11:38:52.280Z,29.95
2023-02-03T11:41:23.858Z,23.80
2023-02-03T11:43:57.969Z,22.02
2023-02-03T11:46:27.385Z,21.25
2023-02-03T11:49:04.700Z,14.50
2023-02-03T11:51:40.206Z,22.98
2023-02-03T11:54:21.364Z,16.85
2023-02-03T11:57:05.220Z,21.27
2023-02-03T12:00:13.240Z,22.55
2023-02-03T12:03:18.118Z,22.30
2023-02-03T12:06:15.131Z,27.42
2023-02-03T12:08:51.141Z,20.20
2023-02-03T12:11:30.391Z,29.98
2023-02-03T12:14:08.051Z,22.92
2023-02-03T12:17:07.078Z,24.42
2023-02-03T12:19:48.868Z,34.83
2023-02-03T12:22:21.068Z,24.48
2023-02-03T12:24:58.281Z,33.85
2023-02-03T12:27:33.587Z,19.40
2023-02-03T12:30:04.883Z,25.08
2023-02-03T12:32:36.307Z,24.80
2023-02-03T12:35:14.789Z,23.40
2023-02-03T12:37:46.575Z,22.63
2023-02-03T12:40:19.804Z,28.33
2023-02-03T12:42:53.361Z,20.75
2023-02-03T12:45:25.047Z,17.80
2023-02-03T12:47:56.733Z,23.50
2023-02-03T12:50:32.157Z,21.30
2023-02-03T12:53:03.190Z,17.85
2023-02-03T12:55:35.816Z,22.40
2023-02-03T12:58:06.585Z,14.48
2023-02-03T13:00:40.658Z,22.40
2023-02-03T13:03:16.590Z,29.83
2023-02-03T13:05:49.633Z,26.00
2023-02-03T13:10:51.240Z,20.05
2023-02-03T13:13:30.533Z,25.83
2023-02-03T13:15:58.563Z,19.63
2023-02-03T13:18:29.522Z,20.52
2023-02-03T13:20:58.946Z,27.92
2023-02-03T13:23:27.390Z,29.48
2023-02-03T13:26:13.726Z,30.05
2023-02-03T13:29:03.588Z,16.70
2023-02-03T13:31:40.908Z,22.88
2023-02-03T13:34:18.277Z,31.27
2023-02-03T13:37:21.582Z,18.35
2023-02-03T13:40:00.513Z,21.73
2023-02-03T13:42:30.155Z,16.83
2023-02-03T13:45:00.424Z,41.35
2023-02-03T13:47:29.628Z,31.30
2023-02-03T13:50:01.287Z,19.80
2023-02-03T13:52:33.582Z,21.80
2023-02-03T13:55:03.344Z,20.85
2023-02-03T13:57:35.656Z,16.65
2023-02-03T14:00:06.471Z,27.08
2023-02-03T14:02:44.070Z,24.02
2023-02-03T14:05:40.328Z,18.58
2023-02-03T14:08:54.178Z,23.55
2023-02-03T14:11:43.636Z,27.92
2023-02-03T14:14:47.917Z,15.80
2023-02-03T14:17:58.853Z,21.92
2023-02-03T14:20:44.792Z,34.72
2023-02-03T14:23:18.185Z,33.88
2023-02-03T14:25:49.332Z,26.77
2023-02-03T14:28:20.564Z,19.75
2023-02-03T14:31:12.726Z,31.25
2023-02-03T14:33:52.377Z,34.00
2023-02-03T14:36:33.748Z,33.25
2023-02-03T14:39:04.999Z,36.38
2023-02-03T14:41:44.931Z,21.77
2023-02-03T14:44:24.290Z,23.45
2023-02-03T14:47:00.783Z,30.58
2023-02-03T14:49:38.346Z,25.27
2023-02-03T14:52:18.095Z,13.23
2023-02-03T14:55:05.107Z,35.95
2023-02-03T14:57:40.140Z,30.33
2023-02-03T15:00:27.581Z,23.75
2023-02-03T15:03:25.771Z,26.27
2023-02-03T15:05:55.904Z,26.40
2023-02-03T15:08:40.584Z,25.73
2023-02-03T15:11:27.734Z,29.55
2023-02-03T15:13:56.744Z,29.40
2023-02-03T15:16:27.216Z,19.63
2023-02-03T15:18:57.365Z,32.33
2023-02-03T15:21:25.803Z,21.17
2023-02-03T15:23:54.519Z,16.98
2023-02-03T15:26:24.285Z,26.88
2023-02-03T15:28:56.157Z,25.75
2023-02-03T15:31:31.790Z,22.02
2023-02-03T15:34:02.553Z,28.88
2023-02-03T15:36:36.612Z,33.35
2023-02-03T15:39:14.048Z,70.78
2023-02-03T15:41:42.172Z,19.85
2023-02-03T15:44:23.513Z,26.20
2023-02-03T15:46:53.702Z,35.85
2023-02-03T15:49:23.512Z,25.02
2023-02-03T15:51:53.476Z,42.17
2023-02-03T15:54:24.547Z,22.60
2023-02-03T15:56:57.659Z,15.10
2023-02-03T15:59:27.795Z,24.30
2023-02-03T16:01:57.659Z,25.23
2023-02-03T16:04:26.567Z,17.85
2023-02-03T16:06:55.635Z,25.05
2023-02-03T16:09:29.664Z,20.05
2023-02-03T16:12:06.990Z,24.67
2023-02-03T16:14:36.827Z,19.40
2023-02-03T16:17:06.938Z,27.23
2023-02-03T16:19:40.318Z,22.60
2023-02-03T16:22:32.006Z,24.38
2023-02-03T16:25:14.496Z,17.98
2023-02-03T16:27:45.312Z,20.47
2023-02-03T16:30:42.263Z,26.00
2023-02-03T16:33:35.299Z,16.60
2023-02-03T16:36:28.160Z,25.23
2023-02-03T16:39:14.194Z,21.20
2023-02-03T16:41:59.552Z,15.23
2023-02-03T16:44:44.829Z,28.25
2023-02-03T16:47:41.115Z,18.55
2023-02-03T16:50:38.172Z,21.77
2023-02-03T16:53:07.420Z,20.92
2023-02-03T16:55:35.297Z,18.40
2023-02-03T16:58:03.125Z,32.78
2023-02-03T17:00:31.088Z,14.38
2023-02-03T17:02:59.011Z,18.02
2023-02-03T17:05:28.781Z,18.70
2023-02-03T17:07:56.931Z,25.70
2023-02-03T17:10:26.507Z,20.00
2023-02-03T17:12:54.364Z,27.10
2023-02-03T17:15:22.255Z,17.55
2023-02-03T17:17:50.139Z,20.10
2023-02-03T17:20:18.679Z,12.93
2023-02-03T17:22:51.676Z,13.68
2023-02-03T17:27:47.532Z,15.00
2023-02-03T17:30:17.688Z,31.67
2023-02-03T17:32:45.563Z,24.88
2023-02-03T17:35:13.675Z,21.75
2023-02-03T17:37:41.628Z,27.42
2023-02-03T17:54:06.194Z,4.40
2023-02-03T17:56:36.549Z,5.50
2023-02-03T17:59:05.921Z,10.25
2023-02-03T18:01:33.978Z,5.22
2023-02-03T18:04:03.355Z,4.57
2023-02-03T18:06:33.177Z,5.30
2023-02-03T18:09:02.575Z,1.60
2023-02-03T18:11:31.946Z,9.30
2023-02-03T18:14:01.752Z,5.82
2023-02-03T18:16:33.130Z,3.38
2023-02-03T18:19:02.785Z,1.10
2023-02-03T18:21:32.310Z,2.15
2023-02-03T18:24:01.885Z,1.38
2023-02-03T18:26:32.664Z,1.35
2023-02-03T18:29:02.278Z,6.30
2023-02-03T18:31:30.637Z,4.32
2023-02-03T18:34:02.279Z,4.18
2023-02-03T18:36:30.189Z,2.05
2023-02-03T18:38:58.021Z,4.55
2023-02-03T18:41:26.877Z,2.22
2023-02-03T18:43:54.889Z,1.85
2023-02-03T18:46:25.845Z,6.05
2023-02-03T18:48:54.160Z,0.60
2023-02-03T18:51:22.443Z,3.70
2023-02-03T18:53:50.885Z,2.45
2023-02-03T18:56:20.681Z,3.05
2023-02-03T18:58:49.209Z,1.65
2023-02-03T19:01:22.751Z,0.65
2023-02-03T19:03:52.245Z,0.32
2023-02-03T19:06:20.166Z,0.40
2023-02-03T19:08:48.137Z,0.70
2023-02-03T19:11:16.013Z,1.38
2023-02-03T19:13:44.037Z,2.50
2023-02-03T19:16:14.439Z,7.22
2023-02-03T19:18:45.462Z,1.23
2023-02-03T19:21:15.087Z,1.40
2023-02-03T19:23:43.450Z,1.30
2023-02-03T19:26:12.163Z,1.10
2023-02-03T19:28:41.191Z,4.05
2023-02-03T19:31:11.375Z,0.77
2023-02-03T19:33:39.459Z,2.35
2023-02-03T19:36:08.946Z,0.75
2023-02-03T19:38:38.408Z,1.42
2023-02-03T19:41:07.440Z,1.95
2023-02-03T19:43:35.351Z,1.17
2023-02-03T19:46:03.361Z,0.93
2023-02-03T19:48:31.195Z,0.70
2023-02-03T19:51:01.086Z,0.50
2023-02-03T19:53:29.082Z,0.40
2023-02-03T19:55:59.458Z,1.05
2023-02-03T19:58:27.365Z,0.75
2023-02-03T20:00:55.314Z,2.00
2023-02-03T20:03:23.449Z,2.28
2023-02-03T20:05:52.961Z,2.65
2023-02-03T20:08:20.864Z,1.65
2023-02-03T20:10:48.755Z,1.90
2023-02-03T20:13:18.241Z,1.30
2023-02-03T20:15:47.611Z,0.82
2023-02-03T20:18:16.293Z,1.95
2023-02-03T20:20:44.261Z,3.63
2023-02-03T20:23:12.261Z,4.03
2023-02-03T20:25:40.142Z,1.60
2023-02-03T20:28:08.093Z,4.70
2023-02-03T20:30:38.772Z,5.38
2023-02-03T20:33:06.662Z,2.35
2023-02-03T20:35:34.810Z,1.52
2023-02-03T20:38:02.644Z,2.03
2023-02-03T20:40:30.692Z,1.83
2023-02-03T20:43:05.987Z,1.85
2023-02-03T20:45:34.638Z,2.70
2023-02-03T20:48:03.970Z,4.40
2023-02-03T20:50:41.734Z,0.95
2023-02-03T20:53:13.571Z,3.78
2023-02-03T20:55:41.583Z,11.73
2023-02-03T20:58:18.008Z,2.50
2023-02-03T21:00:46.597Z,3.53
2023-02-03T21:03:34.096Z,3.25
2023-02-03T21:06:02.350Z,2.67
2023-02-03T21:08:30.687Z,2.63
2023-02-03T21:10:58.667Z,4.00
2023-02-03T21:13:27.647Z,2.80
2023-02-03T21:15:56.852Z,3.70
2023-02-03T21:18:35.798Z,4.43
2023-02-03T21:21:04.772Z,2.95
2023-02-03T21:23:40.960Z,2.97
2023-02-03T21:26:20.377Z,1.00
2023-02-03T21:28:51.467Z,2.85
2023-02-03T21:31:27.938Z,2.72
2023-02-03T21:33:59.457Z,5.25
2023-02-03T21:36:29.298Z,1.77
2023-02-03T21:38:59.812Z,2.28
2023-02-03T21:41:33.493Z,2.60
2023-02-03T21:44:01.738Z,1.90
2023-02-03T21:46:31.012Z,8.00
2023-02-03T21:49:01.373Z,3.38
2023-02-03T21:51:32.222Z,1.67
2023-02-03T21:54:01.220Z,2.15
2023-02-03T21:56:31.333Z,2.58
2023-02-03T21:59:00.216Z,3.92
2023-02-03T22:01:30.888Z,1.63
2023-02-03T22:04:02.298Z,4.63
2023-02-03T22:06:34.231Z,2.22
2023-02-03T22:09:02.119Z,4.15
2023-02-03T22:11:30.872Z,4.00
2023-02-03T22:13:58.824Z,3.58
2023-02-03T22:16:26.894Z,5.75
2023-02-03T22:18:54.765Z,4.65
2023-02-03T22:21:24.361Z,2.33
2023-02-03T22:23:52.493Z,1.77
2023-02-03T22:26:20.786Z,2.05
2023-02-03T22:28:48.661Z,3.92
2023-02-03T22:31:17.006Z,4.38
2023-02-03T22:33:45.211Z,2.30
2023-02-03T22:36:14.489Z,5.05
2023-02-03T22:38:43.882Z,4.78
2023-02-03T22:41:13.175Z,2.75
2023-02-03T22:43:41.368Z,4.90
2023-02-03T22:46:09.624Z,2.58
2023-02-03T22:48:37.622Z,2.05
2023-02-03T22:51:05.798Z,2.60
2023-02-03T22:53:34.808Z,6.75
2023-02-03T22:56:05.730Z,4.63
2023-02-03T22:58:33.595Z,4.05
2023-02-03T23:01:01.402Z,3.05
2023-02-03T23:03:32.621Z,2.08
2023-02-03T23:06:00.627Z,1.80
2023-02-03T23:08:28.526Z,4.15
2023-02-03T23:10:57.219Z,2.17
2023-02-03T23:13:26.742Z,2.25
2023-02-03T23:15:54.648Z,1.33
2023-02-03T23:18:22.569Z,2.72
2023-02-03T23:20:50.500Z,2.25
2023-02-03T23:23:18.375Z,3.03
2023-02-03T23:25:46.245Z,2.33
2023-02-03T23:28:14.209Z,1.25
2023-02-03T23:30:43.497Z,0.95
2023-02-03T23:33:11.418Z,1.70
2023-02-03T23:35:47.129Z,2.33
2023-02-03T23:38:15.246Z,0.90
2023-02-03T23:40:43.431Z,5.85
2023-02-03T23:43:11.389Z,2.63
2023-02-03T23:45:39.258Z,1.90
2023-02-03T23:48:08.699Z,3.70
2023-02-03T23:50:36.586Z,0.90
2023-02-03T23:53:04.534Z,0.63
2023-02-03T23:55:32.481Z,1.33
2023-02-03T23:58:00.382Z,2.38
